N24CV KLGB-KLGB
Flight info
| Callsign | N24CV |
|---|---|
| Flight time | 0h 4m |
| Altitude | 1500 |
| Route | VFR |
| Aircraft | C172/L-VGD/A |
Departure
| Time | 2026-04-23 02:47 |
|---|---|
| Airport | Long Beach International Airport (KLGB) |
Arrival
| Time | 2026-04-23 02:51 |
|---|---|
| Airport | Long Beach International Airport (KLGB) |
| Time | Latitude | Longitude | Altitude | Speed | Heading |
|---|---|---|---|---|---|
| 2026-04-23 02:36 | 33.81267 | -118.15451 | 49 ft | 0 kts | 269° |
| 2026-04-23 02:41 | 33.81267 | -118.15461 | 50 ft | 5 kts | 271° |
| 2026-04-23 02:42 | 33.81285 | -118.15473 | 50 ft | 2 kts | 356° |
| 2026-04-23 02:42 | 33.81287 | -118.15473 | 50 ft | 1 kts | 355° |
| 2026-04-23 02:42 | 33.81310 | -118.15455 | 50 ft | 10 kts | 87° |
| 2026-04-23 02:42 | 33.81309 | -118.15324 | 47 ft | 18 kts | 91° |
| 2026-04-23 02:43 | 33.81310 | -118.15170 | 43 ft | 19 kts | 88° |
| 2026-04-23 02:43 | 33.81310 | -118.15018 | 42 ft | 18 kts | 89° |
| 2026-04-23 02:43 | 33.81308 | -118.14872 | 40 ft | 17 kts | 89° |
| 2026-04-23 02:43 | 33.81298 | -118.14807 | 39 ft | 7 kts | 193° |
| 2026-04-23 02:44 | 33.81269 | -118.14830 | 39 ft | 0 kts | 271° |
| 2026-04-23 02:44 | 33.81269 | -118.14834 | 39 ft | 4 kts | 269° |
| 2026-04-23 02:45 | 33.81302 | -118.14852 | 39 ft | 8 kts | 353° |
| 2026-04-23 02:45 | 33.81346 | -118.14860 | 39 ft | 0 kts | 360° |
| 2026-04-23 02:45 | 33.81377 | -118.14859 | 39 ft | 7 kts | 359° |
| 2026-04-23 02:46 | 33.81392 | -118.14874 | 40 ft | 0 kts | 266° |
| 2026-04-23 02:46 | 33.81392 | -118.14881 | 40 ft | 9 kts | 269° |
| 2026-04-23 02:46 | 33.81392 | -118.15168 | 42 ft | 58 kts | 270° |
| 2026-04-23 02:46 | 33.81393 | -118.15749 | 159 ft | 72 kts | 270° |
| 2026-04-23 02:47 | 33.81387 | -118.16354 | 402 ft | 76 kts | 270° |
| 2026-04-23 02:47 | 33.81368 | -118.16990 | 694 ft | 76 kts | 266° |
| 2026-04-23 02:47 | 33.81016 | -118.17464 | 877 ft | 88 kts | 204° |
| 2026-04-23 02:47 | 33.80363 | -118.17541 | 965 ft | 98 kts | 191° |
| 2026-04-23 02:48 | 33.79673 | -118.17323 | 1011 ft | 117 kts | 145° |
| 2026-04-23 02:48 | 33.79333 | -118.16401 | 1069 ft | 127 kts | 97° |
| 2026-04-23 02:48 | 33.79262 | -118.15313 | 1057 ft | 134 kts | 92° |
| 2026-04-23 02:48 | 33.79240 | -118.14201 | 1023 ft | 131 kts | 89° |
| 2026-04-23 02:49 | 33.79258 | -118.13104 | 1036 ft | 130 kts | 87° |
| 2026-04-23 02:49 | 33.79561 | -118.12109 | 1041 ft | 129 kts | 46° |
| 2026-04-23 02:49 | 33.80300 | -118.11596 | 948 ft | 115 kts | 6° |
| 2026-04-23 02:49 | 33.81041 | -118.11480 | 840 ft | 106 kts | 357° |
| 2026-04-23 02:50 | 33.81498 | -118.11920 | 673 ft | 99 kts | 268° |
| 2026-04-23 02:50 | 33.81392 | -118.12784 | 427 ft | 101 kts | 269° |
| 2026-04-23 02:50 | 33.81393 | -118.13571 | 272 ft | 90 kts | 269° |
| 2026-04-23 02:50 | 33.81391 | -118.14260 | 164 ft | 73 kts | 270° |
| 2026-04-23 02:51 | 33.81391 | -118.14820 | 73 ft | 63 kts | 269° |
| 2026-04-23 02:51 | 33.81392 | -118.15294 | 45 ft | 48 kts | 269° |
| 2026-04-23 02:51 | 33.81394 | -118.15808 | 97 ft | 73 kts | 271° |
| 2026-04-23 02:51 | 33.81399 | -118.16417 | 328 ft | 73 kts | 271° |
| 2026-04-23 02:52 | 33.81354 | -118.17030 | 669 ft | 73 kts | 249° |
| 2026-04-23 02:52 | 33.80861 | -118.17263 | 861 ft | 88 kts | 185° |
| 2026-04-23 02:52 | 33.80244 | -118.17226 | 993 ft | 91 kts | 181° |
| 2026-04-23 02:52 | 33.79748 | -118.16691 | 1008 ft | 112 kts | 105° |
| 2026-04-23 02:53 | 33.79673 | -118.15738 | 998 ft | 117 kts | 91° |
| 2026-04-23 02:53 | 33.79681 | -118.14717 | 987 ft | 124 kts | 89° |
| 2026-04-23 02:53 | 33.79682 | -118.13637 | 1041 ft | 133 kts | 89° |
| 2026-04-23 02:53 | 33.79709 | -118.12528 | 1081 ft | 132 kts | 79° |
| 2026-04-23 02:54 | 33.80190 | -118.11771 | 1060 ft | 108 kts | 15° |
| 2026-04-23 02:54 | 33.80929 | -118.11617 | 928 ft | 110 kts | 356° |
| 2026-04-23 02:54 | 33.81491 | -118.12082 | 778 ft | 109 kts | 276° |
| 2026-04-23 02:54 | 33.81396 | -118.13009 | 463 ft | 113 kts | 269° |
| 2026-04-23 02:55 | 33.81395 | -118.13897 | 258 ft | 97 kts | 270° |
| 2026-04-23 02:55 | 33.81391 | -118.14630 | 91 ft | 78 kts | 270° |
| 2026-04-23 02:55 | 33.81391 | -118.15156 | 42 ft | 48 kts | 270° |
| 2026-04-23 02:55 | 33.81389 | -118.15588 | 76 ft | 62 kts | 271° |
| 2026-04-23 02:56 | 33.81394 | -118.16139 | 233 ft | 70 kts | 269° |
| 2026-04-23 02:56 | 33.81392 | -118.16766 | 495 ft | 79 kts | 272° |
| 2026-04-23 02:56 | 33.81095 | -118.17313 | 716 ft | 94 kts | 208° |
| 2026-04-23 02:56 | 33.80417 | -118.17349 | 899 ft | 103 kts | 185° |
| 2026-04-23 02:57 | 33.79701 | -118.17199 | 1012 ft | 114 kts | 154° |
| 2026-04-23 02:57 | 33.79419 | -118.16276 | 1035 ft | 128 kts | 92° |
| 2026-04-23 02:57 | 33.79394 | -118.15223 | 1049 ft | 122 kts | 90° |
| 2026-04-23 02:57 | 33.79386 | -118.14203 | 1026 ft | 122 kts | 89° |
| 2026-04-23 02:58 | 33.79380 | -118.13188 | 1086 ft | 127 kts | 89° |
| 2026-04-23 02:58 | 33.79409 | -118.12121 | 1118 ft | 129 kts | 77° |
| 2026-04-23 02:58 | 33.79976 | -118.11446 | 1059 ft | 111 kts | 7° |
| 2026-04-23 02:58 | 33.80734 | -118.11321 | 968 ft | 109 kts | 358° |
| 2026-04-23 02:59 | 33.81400 | -118.11532 | 909 ft | 95 kts | 303° |
| 2026-04-23 02:59 | 33.81409 | -118.12354 | 571 ft | 113 kts | 262° |
| 2026-04-23 02:59 | 33.81395 | -118.12977 | 406 ft | 110 kts | 273° |
| 2026-04-23 02:59 | 33.81391 | -118.14025 | 201 ft | 79 kts | 272° |
| 2026-04-23 03:00 | 33.81390 | -118.14649 | 96 ft | 72 kts | 275° |
| 2026-04-23 03:00 | 33.81391 | -118.15254 | 119 ft | 76 kts | 271° |
| 2026-04-23 03:00 | 33.81397 | -118.15892 | 239 ft | 74 kts | 277° |
| 2026-04-23 03:00 | 33.81396 | -118.16484 | 439 ft | 69 kts | 275° |
| 2026-04-23 03:01 | 33.81300 | -118.17034 | 668 ft | 75 kts | 238° |
| 2026-04-23 03:01 | 33.80717 | -118.17254 | 772 ft | 100 kts | 189° |
| 2026-04-23 03:01 | 33.80007 | -118.17241 | 951 ft | 102 kts | 176° |
| 2026-04-23 03:01 | 33.79461 | -118.16639 | 1036 ft | 124 kts | 107° |
| 2026-04-23 03:02 | 33.79389 | -118.15557 | 990 ft | 131 kts | 90° |
| 2026-04-23 03:02 | 33.79389 | -118.14487 | 1019 ft | 125 kts | 88° |
| 2026-04-23 03:02 | 33.79411 | -118.13455 | 1101 ft | 125 kts | 86° |
| 2026-04-23 03:02 | 33.79435 | -118.12406 | 1145 ft | 127 kts | 84° |
| 2026-04-23 03:03 | 33.79853 | -118.11569 | 1099 ft | 116 kts | 23° |
| 2026-04-23 03:03 | 33.80618 | -118.11338 | 963 ft | 115 kts | 1° |